• Join FlightAware (Why Join?)
  • Login
  • US Flag 
02:19PM EST


 

Airport Tracker/Info


-or-


 

Live Flight TrackerFlight Track Log ✈ SWA757 ✈ 22-Apr-2013 ✈ KSJC - KSAN

Flight Track Log - Related Links

Times and Time Zones

All times are in EDT time to prevent confusion due to time zone crossing. See the SWA757 flight status page for this flight to view local times or setup timezone preferences in your user account.

Time Position Orientation Groundspeed Altitude Reporting Facility
EDT Latitude Longitude Course Direction KTS MPH feet Rate Location/Type
11:14PM 37.3833 -121.9500 22° Northeast 157 181 1,900  Level Northern Cal TRACON
11:15PM 37.4167 -121.9333 22° Northeast 247 284 4,700 2,820 Climbing Northern Cal TRACON
11:17PM 37.3453 -121.8194 128° Southeast 263 303 9,800 2,940 Climbing Oakland Center
11:18PM 37.2611 -121.7231 138° Southeast 347 399 13,400 3,420 Climbing Oakland Center
11:19PM 37.1792 -121.6300 138° Southeast 392 451 16,900 3,480 Climbing Oakland Center
11:20PM 37.0928 -121.5347 139° Southeast 412 474 20,500 3,000 Climbing Oakland Center
11:21PM 37.0150 -121.4475 138° Southeast 425 489 23,100 2,760 Climbing Oakland Center
11:22PM 36.8997 -121.3231 139° Southeast 456 525 26,200 2,520 Climbing Oakland Center
11:23PM 36.8122 -121.2236 138° Southeast 468 539 28,300 2,400 Climbing Oakland Center
11:24PM 36.7100 -121.1167 140° Southeast 480 552 31,200 2,640 Climbing Oakland Center
11:25PM 36.6139 -121.0103 138° Southeast 466 536 33,700 2,160 Climbing Oakland Center
11:26PM 36.5139 -120.9039 139° Southeast 470 541 35,600 1,920 Climbing Oakland Center
11:27PM 36.4167 -120.7942 138° Southeast 472 543 37,700 1,620 Climbing Oakland Center
11:28PM 36.2981 -120.6686 140° Southeast 467 537 39,000 600 Climbing Oakland Center
11:29PM 36.1997 -120.5642 139° Southeast 466 536 39,000  Level Oakland Center
11:30PM 36.0992 -120.4547 139° Southeast 480 552 39,000  Level Oakland Center
11:31PM 36.0008 -120.3508 139° Southeast 462 532 39,000  Level Oakland Center
11:32PM 35.9025 -120.2475 140° Southeast 460 529 39,000  Level Oakland Center
11:33PM 35.8031 -120.1422 139° Southeast 466 536 39,000  Level Oakland Center
11:34PM 35.7031 -120.0372 140° Southeast 468 539 39,000  Level Oakland Center
11:35PM 35.6014 -119.9383 142° Southeast 463 533 39,000  Level Oakland Center
11:36PM 35.4950 -119.8467 145° Southeast 462 532 39,000  Level Oakland Center
11:37PM 35.3886 -119.7553 145° Southeast 462 532 39,000  Level Oakland Center
11:38PM 35.2831 -119.6650 145° Southeast 462 532 39,000  Level Oakland Center
11:39PM 35.1767 -119.5747 145° Southeast 463 533 39,000  Level Oakland Center
11:40PM 35.0708 -119.4842 145° Southeast 463 533 39,000  Level Oakland Center
11:41PM 34.9639 -119.3950 146° Southeast 463 533 39,000  Level Oakland Center
11:42PM 34.8592 -119.3056 145° Southeast 461 531 39,000  Level Oakland Center
11:43PM 34.7528 -119.2150 145° Southeast 463 533 39,000  Level Oakland Center
11:44PM 34.6250 -119.1061 145° Southeast 468 539 39,000  Level Los Angeles Center
11:45PM 34.4944 -118.9969 145° Southeast 474 545 39,000  Level Los Angeles Center
11:46PM 34.3856 -118.9067 146° Southeast 474 545 39,000  Level Los Angeles Center
11:47PM 34.2839 -118.8058 141° Southeast 480 552 39,000 -480 Level Los Angeles Center
11:48PM 34.1861 -118.7006 138° Southeast 472 543 38,100 -900 Descending Los Angeles Center
11:49PM 34.0886 -118.5992 139° Southeast 465 535 37,200 -960 Descending Los Angeles Center
11:50PM 33.9908 -118.4939 138° Southeast 468 539 36,200 -960 Descending Los Angeles Center
11:51PM 33.8950 -118.3828 136° Southeast 474 545 35,300 -1,020 Descending Los Angeles Center
11:52PM 33.7958 -118.2503 132° Southeast 478 550 34,200 -1,080 Descending Los Angeles Center
11:53PM 33.7047 -118.1383 134° Southeast 485 558 33,100 -2,220 Descending Los Angeles Center
11:54PM 33.6119 -118.0214 134° Southeast 484 557 29,700 -2,940 Descending Los Angeles Center
11:55PM 33.5208 -117.9064 134° Southeast 479 551 27,100 -2,640 Descending Los Angeles Center
11:56PM 33.4336 -117.7956 133° Southeast 466 536 24,300 -3,240 Descending Los Angeles Center
11:57PM 33.3833 -117.7167 127° Southeast 442 509 22,300 -3,480 Descending Southern California TRACON
11:57PM 33.3331 -117.6681 141° Southeast 445 512 20,800 -2,760 Descending Los Angeles Center
11:58PM 33.2511 -117.5667 134° Southeast 431 496 18,000 -2,700 Descending Los Angeles Center
11:59PM 33.2167 -117.5500 158° South 419 482 17,200 -2,820 Descending Southern California TRACON
12:00AM 33.1333 -117.4667 140° Southeast 399 459 14,300 -2,640 Descending Southern California TRACON
12:01AM 33.0703 -117.4150 146° Southeast 397 457 12,700 -1,560 Descending Los Angeles Center
12:02AM 32.9872 -117.3503 147° Southeast 366 421 11,600 -1,200 Descending Los Angeles Center
12:02AM 32.9667 -117.3333 145° Southeast 323 372 11,200 -1,500 Descending Southern California TRACON
12:03AM 32.9000 -117.2833 148° Southeast 309 356 9,900 -1,440 Descending Southern California TRACON
12:04AM 32.8442 -117.2344 144° Southeast 313 360 8,700 -1,560 Descending Los Angeles Center
12:05AM 32.8011 -117.1567 123° Southeast 308 354 7,000 -1,740 Descending Los Angeles Center
12:06AM 32.7667 -117.0333 108° East 286 329 5,100 -1,020 Descending Southern California TRACON
12:07AM 32.7500 -116.9667 107° East 232 267 4,900 -600 Descending Southern California TRACON
12:08AM 32.7000 -116.9667 180° South 198 228 3,900 -660 Descending Southern California TRACON
12:09AM 32.6833 -117.0000 239° Southwest 166 191 3,700 -840 Descending Southern California TRACON
12:10AM 32.7000 -117.0500 292° West 148 170 2,300 -1,140 Descending Southern California TRACON
12:11AM 32.7167 -117.1000 292° West 131 151 1,400 -840 Descending Southern California TRACON
12:12AM 32.7167 -117.1500 270° West 129 148 700 -720 Descending Southern California TRACON
12:15AM 32.7333 -117.1833 287° West  Level FlightAware Approximate